Bookmark and Share
Track history (hours):
 

CSAV Brasilia

Last reported at 2014-Apr-12 10:15 UTC. Time now 2014-Apr-17 03:53 UTC.
Position N 49°56' W 003°08'.

Length 294 m; draft 12.6 m.

Type: Ship (hazmat cat C). MMSI: 636092017.

NotesDate/timePositionNaut miles runAvg speedWind from/ knotsBaromVisibWave heightAir tempDewpointWater temp
2014-Apr-12 10:15N 49°56' W 003°08'1317.7
2014-Apr-12 09:33N 49°59' W 002°49'3716.3
2014-Apr-12 07:15N 50°09' W 001°53'1014.6
2014-Apr-12 06:33N 50°10' W 001°37'1514.6
2014-Apr-12 05:34N 50°14' W 001°15'1615.3
2014-Apr-12 04:31N 50°19' W 000°51'1616.5
2014-Apr-12 03:33N 50°23' W 000°27'1817.7
2014-Apr-12 02:33N 50°28' W 000°01'1818.3
2014-Apr-12 01:33N 50°35' E 000°26'1817.9
2014-Apr-12 00:34N 50°44' E 000°51'1717.0
2014-Apr-11 23:33N 50°55' E 001°11'1615.7
2014-Apr-11 22:34N 51°05' E 001°30'1515.4
2014-Apr-11 21:34N 51°16' E 001°48'1716.8
2014-Apr-11 20:34N 51°30' E 002°03'1818.1
2014-Apr-11 19:32N 51°43' E 002°23'3818.7
2014-Apr-11 17:29N 52°13' E 003°01'5917.2
2014-Apr-11 14:05N 52°59' E 004°02'1216.4
2014-Apr-11 13:23N 53°07' E 004°16'1316.1
2014-Apr-11 12:33N 53°18' E 004°29'1616.3
2014-Apr-11 11:34N 53°30' E 004°46'1818.2
2014-Apr-11 10:33N 53°37' E 005°15'1818.2
2014-Apr-11 09:34N 53°43' E 005°44'3517.2
2014-Apr-11 07:30N 53°53' E 006°41'1516.3
2014-Apr-11 06:34N 53°56' E 007°06'1616.0
2014-Apr-11 05:33N 54°00' E 007°33'1615.7
2014-Apr-11 04:34N 54°02' E 007°59'1514.6
2014-Apr-11 03:33N 53°59' E 008°24'1515.2
2014-Apr-11 02:33N 53°51' E 008°46'1514.8
2014-Apr-11 01:33N 53°53' E 009°10'1413.9
2014-Apr-11 00:33N 53°43' E 009°28'1211.5
2014-Apr-10 23:33N 53°34' E 009°39'8 8.3
2014-Apr-10 22:33N 53°33' E 009°53'1 1.0
2014-Apr-10 21:32N 53°32' E 009°55'0 0.0
2014-Apr-10 20:32N 53°32' E 009°55'0 0.0
2014-Apr-10 19:32N 53°32' E 009°55'0 0.0
2014-Apr-10 18:32N 53°32' E 009°55'0 0.0
2014-Apr-10 17:32N 53°32' E 009°55'0 0.0
2014-Apr-10 16:32N 53°32' E 009°55'0 0.0
2014-Apr-10 15:32N 53°32' E 009°55'0 0.0
2014-Apr-10 14:32N 53°32' E 009°55'0 0.0
2014-Apr-10 13:29N 53°32' E 009°55'0 0.0
2014-Apr-10 12:32N 53°32' E 009°55'0 0.0
2014-Apr-10 11:32N 53°32' E 009°55'0 0.0
2014-Apr-10 10:32N 53°32' E 009°55'0 0.0
2014-Apr-10 09:32N 53°32' E 009°55'0 0.0
2014-Apr-10 08:32N 53°32' E 009°55'0 0.0
2014-Apr-10 07:32N 53°32' E 009°55'0 0.0
2014-Apr-10 06:32N 53°32' E 009°55'0 0.0
2014-Apr-10 05:29N 53°32' E 009°55'1 0.6
2014-Apr-10 04:33N 53°32' E 009°54'6 6.1
2014-Apr-10 03:33N 53°34' E 009°44'9 9.3
2014-Apr-10 02:33N 53°39' E 009°31'1110.6
2014-Apr-10 01:33N 53°48' E 009°22'10 9.9
2014-Apr-10 00:34N 53°53' E 009°07'1010.0
2014-Apr-09 23:33N 53°50' E 008°51'1010.1
2014-Apr-09 22:34N 53°57' E 008°38'1514.9
2014-Apr-09 21:34N 53°60' E 008°13'1211.6
2014-Apr-09 20:34N 53°57' E 007°54'3 3.3
2014-Apr-09 19:32N 53°55' E 007°49'0 0.0
2014-Apr-09 18:24N 53°55' E 007°49'0 0.0
2014-Apr-09 17:30N 53°55' E 007°49'0 0.0
2014-Apr-09 16:32N 53°55' E 007°49'0 0.0
2014-Apr-09 15:30N 53°55' E 007°49'0 0.0
2014-Apr-09 14:24N 53°55' E 007°49'0 0.0
2014-Apr-09 13:32N 53°55' E 007°49'0 0.0
2014-Apr-09 12:32N 53°55' E 007°49'0 0.0
2014-Apr-09 11:26N 53°55' E 007°49'0 0.0
2014-Apr-09 10:26N 53°55' E 007°49'3 3.9
2014-Apr-09 09:33N 53°52' E 007°53'1010.1
2014-Apr-09 08:33N 53°48' E 008°08'1312.8
2014-Apr-09 07:33N 53°39' E 008°24'7 6.5
2014-Apr-09 06:32N 53°34' E 008°32'0 0.0
2014-Apr-09 05:32N 53°34' E 008°32'0 0.0
2014-Apr-09 04:32N 53°34' E 008°32'0 0.0
2014-Apr-09 03:30N 53°34' E 008°32'0 0.0
2014-Apr-09 02:33N 53°34' E 008°32'0 0.0
2014-Apr-09 01:33N 53°34' E 008°32'0 0.0
2014-Apr-09 00:33N 53°34' E 008°32'0 0.0
2014-Apr-08 23:33N 53°34' E 008°32'0 0.0
2014-Apr-08 22:33N 53°34' E 008°32'0 0.0
2014-Apr-08 21:33N 53°34' E 008°32'0 0.0
2014-Apr-08 20:33N 53°34' E 008°32'0 0.0
2014-Apr-08 19:33N 53°34' E 008°32'0 0.0
2014-Apr-08 18:33N 53°34' E 008°32'0 0.0
2014-Apr-08 17:33N 53°34' E 008°32'0 0.0
2014-Apr-08 16:33N 53°34' E 008°32'0 0.0
2014-Apr-08 15:33N 53°34' E 008°32'6 6.3
2014-Apr-08 14:33N 53°39' E 008°25'1817.6
2014-Apr-08 13:33N 53°51' E 008°02'1312.9
2014-Apr-08 12:34N 53°53' E 007°41'1515.1
2014-Apr-08 11:34N 53°51' E 007°16'4018.7
2014-Apr-08 09:24N 53°42' E 006°09'1618.5
2014-Apr-08 08:33N 53°37' E 005°44'1818.5
2014-Apr-08 07:33N 53°31' E 005°15'1818.1
2014-Apr-08 06:33N 53°24' E 004°47'7017.4
2014-Apr-08 02:33N 52°28' E 003°40'1817.5
2014-Apr-08 01:33N 52°15' E 003°19'5217.4
2014-Apr-07 22:33N 51°51' E 002°04'1616.5
2014-Apr-07 21:34N 51°51' E 001°37'1514.6
2014-Apr-07 20:33N 51°39' E 001°23'1919.1
2014-Apr-07 19:33N 51°29' E 000°58'2311.7
2014-Apr-07 17:33N 51°28' E 000°20'0 0.0
2014-Apr-07 16:33N 51°28' E 000°20'0 0.0
2014-Apr-07 15:34N 51°28' E 000°20'0 0.0
2014-Apr-07 14:34N 51°28' E 000°20'0 0.0
2014-Apr-07 13:34N 51°28' E 000°20'0 0.0
2014-Apr-07 12:34N 51°28' E 000°20'0 0.0
2014-Apr-07 11:34N 51°28' E 000°20'0 0.0
2014-Apr-07 10:33N 51°28' E 000°20'0 0.0
2014-Apr-07 09:34N 51°28' E 000°20'0 0.0
2014-Apr-07 08:34N 51°28' E 000°20'0 0.0
2014-Apr-07 07:34N 51°28' E 000°20'0 0.0
2014-Apr-07 06:33N 51°28' E 000°20'0 0.0
2014-Apr-07 05:33N 51°28' E 000°20'0 0.0
2014-Apr-07 04:34N 51°28' E 000°20'0 0.0
2014-Apr-07 03:34N 51°28' E 000°20'0 0.0
2014-Apr-07 02:34N 51°28' E 000°20'0 0.0
2014-Apr-07 01:33N 51°28' E 000°20'0 0.0
2014-Apr-07 00:34N 51°28' E 000°20'0 0.0
2014-Apr-06 23:34N 51°28' E 000°20'0 0.0
2014-Apr-06 22:33N 51°28' E 000°20'0 0.0
2014-Apr-06 21:32N 51°28' E 000°20'0 0.0
2014-Apr-06 20:32N 51°28' E 000°20'0 0.0
2014-Apr-06 19:33N 51°28' E 000°20'0 0.0
2014-Apr-06 18:30N 51°28' E 000°20'0 0.0
2014-Apr-06 17:33N 51°28' E 000°20'5 4.6
2014-Apr-06 16:33N 51°28' E 000°27'1111.2
2014-Apr-06 15:33N 51°30' E 000°45'1312.9
2014-Apr-06 14:33N 51°32' E 001°06'1515.3
2014-Apr-06 13:33N 51°40' E 001°26'1414.2
2014-Apr-06 12:33N 51°52' E 001°39'6 6.4
2014-Apr-06 11:34N 51°56' E 001°46'1 0.9
2014-Apr-06 10:33N 51°56' E 001°45'4 4.4
2014-Apr-06 09:33N 51°59' E 001°50'1 1.0
2014-Apr-06 08:33N 52°00' E 001°51'2 2.0
2014-Apr-06 07:33N 51°58' E 001°49'2 2.5
2014-Apr-06 06:34N 51°56' E 001°48'1918.4
2014-Apr-06 05:32N 51°37' E 001°50'1515.7
2014-Apr-06 04:33N 51°25' E 002°04'1514.5
2014-Apr-06 03:33N 51°22' E 002°27'1413.7
2014-Apr-06 02:33N 51°25' E 002°49'1515.3
2014-Apr-06 01:34N 51°25' E 003°13'1413.7
2014-Apr-06 00:33N 51°26' E 003°35'1111.0
2014-Apr-05 23:33N 51°21' E 003°51'1010.3
2014-Apr-05 22:33N 51°22' E 004°07'7 6.6
2014-Apr-05 21:34N 51°21' E 004°17'1 0.8
2014-Apr-05 20:33N 51°20' E 004°18'1 0.8
2014-Apr-05 19:19N 51°19' E 004°19'0 0.0
2014-Apr-05 18:19N 51°19' E 004°19'0 0.0
2014-Apr-05 17:31N 51°19' E 004°19'0 0.0
2014-Apr-05 16:28N 51°19' E 004°19'0 0.0
2014-Apr-05 15:28N 51°19' E 004°19'0 0.0
2014-Apr-05 14:25N 51°19' E 004°19'0 0.0
2014-Apr-05 13:22N 51°19' E 004°19'0 0.0
2014-Apr-05 12:25N 51°19' E 004°19'1 0.9
2014-Apr-05 11:32N 51°20' E 004°20'0 0.0
2014-Apr-05 10:32N 51°20' E 004°20'0 0.0
2014-Apr-05 09:29N 51°20' E 004°20'0 0.0
2014-Apr-05 08:32N 51°20' E 004°20'0 0.0
2014-Apr-05 07:33N 51°20' E 004°20'0 0.0
2014-Apr-05 06:33N 51°20' E 004°20'0 0.0
2014-Apr-05 05:33N 51°20' E 004°20'0 0.0
2014-Apr-05 04:33N 51°20' E 004°20'0 0.0
2014-Apr-05 03:33N 51°20' E 004°20'0 0.0
2014-Apr-05 02:33N 51°20' E 004°20'0 0.0
2014-Apr-05 01:30N 51°20' E 004°20'0 0.0
2014-Apr-05 00:30N 51°20' E 004°20'0 0.0
2014-Apr-04 23:33N 51°20' E 004°20'0 0.0
2014-Apr-04 22:31N 51°20' E 004°20'0 0.0
2014-Apr-04 21:31N 51°20' E 004°20'0 0.0
2014-Apr-04 20:19N 51°20' E 004°20'0 0.0
2014-Apr-04 19:31N 51°20' E 004°20'0 0.3
2014-Apr-04 18:33N 51°20' E 004°20'2 2.0
2014-Apr-04 17:34N 51°21' E 004°17'0 0.0
2014-Apr-04 16:34N 51°21' E 004°17'2 2.3
2014-Apr-04 15:34N 51°22' E 004°14'10 9.6
2014-Apr-04 14:33N 51°26' E 004°00'1111.1
2014-Apr-04 13:33N 51°23' E 003°43'1010.4
2014-Apr-04 12:33N 51°25' E 003°26'1413.9
2014-Apr-04 11:33N 51°24' E 003°04'1413.6
2014-Apr-04 10:32N 51°37' E 003°11'13 9.1
2014-Apr-04 09:09N 51°49' E 003°20'1 1.0
2014-Apr-04 08:13N 51°49' E 003°22'0 0.0
2014-Apr-04 07:31N 51°49' E 003°22'0 0.0
2014-Apr-04 06:25N 51°49' E 003°22'0 0.0
2014-Apr-04 05:29N 51°49' E 003°22'0 0.0
2014-Apr-04 04:25N 51°49' E 003°22'0 0.0
2014-Apr-04 03:05N 51°49' E 003°22'0 0.1
2014-Apr-04 02:25N 51°49' E 003°22'0 0.1
2014-Apr-04 01:23N 51°49' E 003°22'0 0.0
2014-Apr-03 23:17N 51°49' E 003°22'0 0.0
2014-Apr-03 22:11N 51°49' E 003°22'0 0.0
2014-Apr-03 21:19N 51°49' E 003°22'0 0.1
2014-Apr-03 19:31N 51°49' E 003°22'4 4.5
2014-Apr-03 18:33N 51°53' E 003°18'2512.4
2014-Apr-03 16:33N 52°02' E 003°54'8 7.6
2014-Apr-03 15:33N 51°58' E 004°04'0 0.5
2014-Apr-03 14:33N 51°58' E 004°04'0 0.0
2014-Apr-03 13:12N 51°58' E 004°04'0 0.0
2014-Apr-03 12:33N 51°58' E 004°04'0 0.0
2014-Apr-03 11:33N 51°58' E 004°04'0 0.0
2014-Apr-03 10:33N 51°58' E 004°04'0 0.0
2014-Apr-03 09:33N 51°58' E 004°04'0 0.0
2014-Apr-03 08:33N 51°58' E 004°04'0 0.0
2014-Apr-03 07:33N 51°58' E 004°04'0 0.3
2014-Apr-03 06:33N 51°58' E 004°04'5 5.2
2014-Apr-03 05:33N 51°60' E 003°56'8 7.8
2014-Apr-03 04:33N 51°57' E 003°44'2 1.5
2014-Apr-03 03:25N 51°55' E 003°44'0 0.1
2014-Apr-03 02:31N 51°55' E 003°44'0 0.2
2014-Apr-03 01:31N 51°55' E 003°44'0 0.0
2014-Apr-03 00:31N 51°55' E 003°44'0 0.0
2014-Apr-02 23:31N 51°55' E 003°44'0 0.0
2014-Apr-02 22:31N 51°55' E 003°44'0 0.0
2014-Apr-02 21:28N 51°55' E 003°44'0 0.0
2014-Apr-02 20:31N 51°55' E 003°44'0 0.1
2014-Apr-02 19:22N 51°55' E 003°44'0 0.0
2014-Apr-02 16:25N 51°55' E 003°44'0 0.0
2014-Apr-02 14:31N 51°55' E 003°44'0 0.2
2014-Apr-02 13:31N 51°55' E 003°44'0 0.0
2014-Apr-02 12:28N 51°55' E 003°44'0 0.0
2014-Apr-02 11:28N 51°55' E 003°44'0 0.0
2014-Apr-02 10:31N 51°55' E 003°44'  

Dump ship's entire track history

sailing weather and tide predictions

CSAV Brasilia — A8VK7 — position and weather